sensor_id;sensor_type;location;lat;lon;timestamp;temperature;humidity
39483;DHT22;25682;48.438;1.482;2023-04-07T15:58:44;20.90;51.70
39483;DHT22;25682;48.438;1.482;2023-04-07T16:01:10;20.90;52.40
39483;DHT22;25682;48.438;1.482;2023-04-07T16:03:35;20.80;51.20
39483;DHT22;25682;48.438;1.482;2023-04-07T16:06:01;20.80;51.00
39483;DHT22;25682;48.438;1.482;2023-04-07T16:08:26;20.80;50.90
39483;DHT22;25682;48.438;1.482;2023-04-07T16:10:52;20.80;50.80
39483;DHT22;25682;48.438;1.482;2023-04-07T16:13:17;20.80;50.70
39483;DHT22;25682;48.438;1.482;2023-04-07T16:15:43;20.80;50.70
39483;DHT22;25682;48.438;1.482;2023-04-07T16:18:09;20.90;50.70
39483;DHT22;25682;48.438;1.482;2023-04-07T16:20:35;20.90;50.50
39483;DHT22;25682;48.438;1.482;2023-04-07T16:23:00;20.90;50.50
39483;DHT22;25682;48.438;1.482;2023-04-07T16:25:26;20.90;50.60
39483;DHT22;25682;48.438;1.482;2023-04-07T16:27:51;20.90;50.70
39483;DHT22;25682;48.438;1.482;2023-04-07T16:30:17;20.90;50.80
39483;DHT22;25682;48.438;1.482;2023-04-07T16:32:43;20.90;50.80
39483;DHT22;25682;48.438;1.482;2023-04-07T16:35:09;20.90;50.90
39483;DHT22;25682;48.438;1.482;2023-04-07T16:37:35;20.90;50.90
39483;DHT22;25682;48.438;1.482;2023-04-07T16:40:01;20.90;50.90
39483;DHT22;25682;48.438;1.482;2023-04-07T16:42:26;20.90;50.90
39483;DHT22;25682;48.438;1.482;2023-04-07T16:44:55;20.90;50.90
39483;DHT22;25682;48.438;1.482;2023-04-07T16:47:28;20.90;50.80
39483;DHT22;25682;48.438;1.482;2023-04-07T16:49:54;20.90;50.80
39483;DHT22;25682;48.438;1.482;2023-04-07T16:52:20;20.90;50.80
39483;DHT22;25682;48.438;1.482;2023-04-07T16:54:46;20.90;50.80
39483;DHT22;25682;48.438;1.482;2023-04-07T16:57:11;20.90;50.60
39483;DHT22;25682;48.438;1.482;2023-04-07T16:59:37;20.90;50.60
39483;DHT22;25682;48.438;1.482;2023-04-07T17:02:12;20.90;50.60
39483;DHT22;25682;48.438;1.482;2023-04-07T17:04:41;20.80;50.60
39483;DHT22;25682;48.438;1.482;2023-04-07T17:07:06;20.90;50.60
39483;DHT22;25682;48.438;1.482;2023-04-07T17:09:32;20.80;50.50
39483;DHT22;25682;48.438;1.482;2023-04-07T17:11:58;20.90;50.50
39483;DHT22;25682;48.438;1.482;2023-04-07T17:14:24;20.80;50.50
39483;DHT22;25682;48.438;1.482;2023-04-07T17:16:49;20.90;50.50
39483;DHT22;25682;48.438;1.482;2023-04-07T17:19:15;20.80;50.30
39483;DHT22;25682;48.438;1.482;2023-04-07T17:21:41;20.80;50.20
39483;DHT22;25682;48.438;1.482;2023-04-07T17:24:07;20.90;50.30
39483;DHT22;25682;48.438;1.482;2023-04-07T17:26:32;20.80;50.10
39483;DHT22;25682;48.438;1.482;2023-04-07T17:28:58;20.90;50.10
39483;DHT22;25682;48.438;1.482;2023-04-07T17:31:24;20.90;50.00
39483;DHT22;25682;48.438;1.482;2023-04-07T17:33:49;20.90;50.00
39483;DHT22;25682;48.438;1.482;2023-04-07T17:36:15;20.90;50.00
39483;DHT22;25682;48.438;1.482;2023-04-07T17:38:41;20.90;50.10
39483;DHT22;25682;48.438;1.482;2023-04-07T17:41:06;20.90;50.30
39483;DHT22;25682;48.438;1.482;2023-04-07T17:43:32;20.90;50.30
39483;DHT22;25682;48.438;1.482;2023-04-07T17:45:57;20.90;50.40
39483;DHT22;25682;48.438;1.482;2023-04-07T17:48:23;20.90;50.50
39483;DHT22;25682;48.438;1.482;2023-04-07T17:50:49;20.90;50.60
39483;DHT22;25682;48.438;1.482;2023-04-07T17:53:15;20.90;50.70
39483;DHT22;25682;48.438;1.482;2023-04-07T17:55:40;20.90;50.80
39483;DHT22;25682;48.438;1.482;2023-04-07T17:58:06;20.90;50.90
39483;DHT22;25682;48.438;1.482;2023-04-07T18:00:32;20.90;51.10
